sensor_id;sensor_type;location;lat;lon;timestamp;temperature;humidity
71047;SHT31;58703;48.978;8.982;2023-04-03T00:01:45;3.79;75.80
71047;SHT31;58703;48.978;8.982;2023-04-03T00:04:12;3.79;75.51
71047;SHT31;58703;48.978;8.982;2023-04-03T00:06:39;3.81;76.13
71047;SHT31;58703;48.978;8.982;2023-04-03T00:09:06;3.76;75.56
71047;SHT31;58703;48.978;8.982;2023-04-03T00:11:31;3.73;76.12
71047;SHT31;58703;48.978;8.982;2023-04-03T00:13:57;3.76;76.40
71047;SHT31;58703;48.978;8.982;2023-04-03T00:16:22;3.79;75.47
71047;SHT31;58703;48.978;8.982;2023-04-03T00:18:48;3.79;75.78
71047;SHT31;58703;48.978;8.982;2023-04-03T00:21:14;3.79;75.94
71047;SHT31;58703;48.978;8.982;2023-04-03T00:23:42;3.75;76.21
71047;SHT31;58703;48.978;8.982;2023-04-03T00:26:07;3.79;76.02
71047;SHT31;58703;48.978;8.982;2023-04-03T00:28:33;3.78;76.20
71047;SHT31;58703;48.978;8.982;2023-04-03T00:30:59;3.75;76.09
71047;SHT31;58703;48.978;8.982;2023-04-03T00:33:25;3.73;76.59
71047;SHT31;58703;48.978;8.982;2023-04-03T00:35:51;3.71;76.51
71047;SHT31;58703;48.978;8.982;2023-04-03T00:38:18;3.68;76.53
71047;SHT31;58703;48.978;8.982;2023-04-03T00:40:46;3.66;76.84
71047;SHT31;58703;48.978;8.982;2023-04-03T00:43:16;3.63;77.30
71047;SHT31;58703;48.978;8.982;2023-04-03T00:45:44;3.63;76.93
71047;SHT31;58703;48.978;8.982;2023-04-03T00:48:23;3.61;77.64
71047;SHT31;58703;48.978;8.982;2023-04-03T00:50:50;3.58;77.58
71047;SHT31;58703;48.978;8.982;2023-04-03T00:53:20;3.61;77.04
71047;SHT31;58703;48.978;8.982;2023-04-03T00:55:48;3.55;77.55
71047;SHT31;58703;48.978;8.982;2023-04-03T00:58:17;3.56;77.14
71047;SHT31;58703;48.978;8.982;2023-04-03T01:00:49;3.58;77.51
71047;SHT31;58703;48.978;8.982;2023-04-03T01:03:16;3.55;77.61
71047;SHT31;58703;48.978;8.982;2023-04-03T01:05:42;3.52;77.41
71047;SHT31;58703;48.978;8.982;2023-04-03T01:08:09;3.50;77.44
71047;SHT31;58703;48.978;8.982;2023-04-03T01:10:36;3.48;77.75
71047;SHT31;58703;48.978;8.982;2023-04-03T01:13:17;3.42;77.96
71047;SHT31;58703;48.978;8.982;2023-04-03T01:15:44;3.39;77.72
71047;SHT31;58703;48.978;8.982;2023-04-03T01:18:10;3.30;78.48
71047;SHT31;58703;48.978;8.982;2023-04-03T01:21:08;3.27;78.31
71047;SHT31;58703;48.978;8.982;2023-04-03T01:23:52;3.25;78.29
71047;SHT31;58703;48.978;8.982;2023-04-03T01:26:21;3.20;78.74
71047;SHT31;58703;48.978;8.982;2023-04-03T01:28:47;3.21;78.45
71047;SHT31;58703;48.978;8.982;2023-04-03T01:31:27;3.20;78.48
71047;SHT31;58703;48.978;8.982;2023-04-03T01:33:54;3.18;78.54
71047;SHT31;58703;48.978;8.982;2023-04-03T01:36:22;3.10;79.07
71047;SHT31;58703;48.978;8.982;2023-04-03T01:38:49;3.11;78.92
71047;SHT31;58703;48.978;8.982;2023-04-03T01:41:16;3.12;77.79
71047;SHT31;58703;48.978;8.982;2023-04-03T01:43:42;3.17;78.51
71047;SHT31;58703;48.978;8.982;2023-04-03T01:46:08;3.21;77.71
71047;SHT31;58703;48.978;8.982;2023-04-03T01:48:34;3.21;77.47
71047;SHT31;58703;48.978;8.982;2023-04-03T01:51:00;3.25;77.19
71047;SHT31;58703;48.978;8.982;2023-04-03T01:53:26;3.30;76.98
71047;SHT31;58703;48.978;8.982;2023-04-03T01:55:52;3.32;76.70
71047;SHT31;58703;48.978;8.982;2023-04-03T01:58:18;3.30;77.24
71047;SHT31;58703;48.978;8.982;2023-04-03T02:00:44;3.25;77.41
71047;SHT31;58703;48.978;8.982;2023-04-03T02:03:12;3.34;76.57
71047;SHT31;58703;48.978;8.982;2023-04-03T02:05:37;3.39;76.16
71047;SHT31;58703;48.978;8.982;2023-04-03T02:08:04;3.41;75.65
71047;SHT31;58703;48.978;8.982;2023-04-03T02:10:30;3.44;75.57
71047;SHT31;58703;48.978;8.982;2023-04-03T02:12:56;3.46;74.99
71047;SHT31;58703;48.978;8.982;2023-04-03T02:15:22;3.51;74.72
71047;SHT31;58703;48.978;8.982;2023-04-03T02:17:48;3.52;74.38
71047;SHT31;58703;48.978;8.982;2023-04-03T02:20:13;3.52;74.52
71047;SHT31;58703;48.978;8.982;2023-04-03T02:22:39;3.50;74.16
71047;SHT31;58703;48.978;8.982;2023-04-03T02:25:04;3.48;74.44
71047;SHT31;58703;48.978;8.982;2023-04-03T02:27:33;3.48;74.20
71047;SHT31;58703;48.978;8.982;2023-04-03T02:29:59;3.45;74.43
71047;SHT31;58703;48.978;8.982;2023-04-03T02:32:25;3.51;73.97
71047;SHT31;58703;48.978;8.982;2023-04-03T02:34:50;3.48;74.19
71047;SHT31;58703;48.978;8.982;2023-04-03T02:37:16;3.54;73.63
71047;SHT31;58703;48.978;8.982;2023-04-03T02:39:41;3.51;73.33
71047;SHT31;58703;48.978;8.982;2023-04-03T02:42:07;3.58;72.66
71047;SHT31;58703;48.978;8.982;2023-04-03T02:44:34;3.58;73.22
71047;SHT31;58703;48.978;8.982;2023-04-03T02:46:59;3.55;73.08
71047;SHT31;58703;48.978;8.982;2023-04-03T02:49:26;3.54;73.53
71047;SHT31;58703;48.978;8.982;2023-04-03T02:51:53;3.51;73.54
71047;SHT31;58703;48.978;8.982;2023-04-03T02:54:19;3.52;73.61
71047;SHT31;58703;48.978;8.982;2023-04-03T02:56:47;3.51;73.54
71047;SHT31;58703;48.978;8.982;2023-04-03T02:59:12;3.51;73.67
71047;SHT31;58703;48.978;8.982;2023-04-03T03:01:40;3.51;73.53
71047;SHT31;58703;48.978;8.982;2023-04-03T03:04:06;3.58;73.34
71047;SHT31;58703;48.978;8.982;2023-04-03T03:06:32;3.58;73.68
71047;SHT31;58703;48.978;8.982;2023-04-03T03:08:57;3.59;73.18
71047;SHT31;58703;48.978;8.982;2023-04-03T03:11:23;3.58;73.52
71047;SHT31;58703;48.978;8.982;2023-04-03T03:13:48;3.58;73.72
71047;SHT31;58703;48.978;8.982;2023-04-03T03:16:15;3.55;74.43
71047;SHT31;58703;48.978;8.982;2023-04-03T03:18:41;3.52;74.34
71047;SHT31;58703;48.978;8.982;2023-04-03T03:21:09;3.52;74.54
71047;SHT31;58703;48.978;8.982;2023-04-03T03:23:35;3.50;74.68
71047;SHT31;58703;48.978;8.982;2023-04-03T03:26:06;3.55;74.27
71047;SHT31;58703;48.978;8.982;2023-04-03T03:28:37;3.48;74.80
71047;SHT31;58703;48.978;8.982;2023-04-03T03:31:03;3.45;75.25
71047;SHT31;58703;48.978;8.982;2023-04-03T03:33:30;3.45;75.54
71047;SHT31;58703;48.978;8.982;2023-04-03T03:35:55;3.46;75.62
71047;SHT31;58703;48.978;8.982;2023-04-03T03:38:22;3.42;75.81
71047;SHT31;58703;48.978;8.982;2023-04-03T03:40:48;3.46;75.13
71047;SHT31;58703;48.978;8.982;2023-04-03T03:43:15;3.45;75.20
71047;SHT31;58703;48.978;8.982;2023-04-03T03:45:41;3.46;75.73
71047;SHT31;58703;48.978;8.982;2023-04-03T03:48:08;3.48;75.48
71047;SHT31;58703;48.978;8.982;2023-04-03T03:50:35;3.46;75.38
71047;SHT31;58703;48.978;8.982;2023-04-03T03:53:01;3.50;74.65
71047;SHT31;58703;48.978;8.982;2023-04-03T03:55:26;3.54;74.38
71047;SHT31;58703;48.978;8.982;2023-04-03T03:57:52;3.51;74.38
71047;SHT31;58703;48.978;8.982;2023-04-03T04:00:18;3.51;73.63
71047;SHT31;58703;48.978;8.982;2023-04-03T04:02:44;3.56;73.08
71047;SHT31;58703;48.978;8.982;2023-04-03T04:05:11;3.54;73.44
71047;SHT31;58703;48.978;8.982;2023-04-03T04:07:36;3.55;73.62
71047;SHT31;58703;48.978;8.982;2023-04-03T04:10:03;3.54;73.06
71047;SHT31;58703;48.978;8.982;2023-04-03T04:12:28;3.52;73.89
71047;SHT31;58703;48.978;8.982;2023-04-03T04:14:54;3.50;74.19
71047;SHT31;58703;48.978;8.982;2023-04-03T04:17:21;3.46;74.69
71047;SHT31;58703;48.978;8.982;2023-04-03T04:19:48;3.42;74.79
71047;SHT31;58703;48.978;8.982;2023-04-03T04:22:15;3.35;74.42
71047;SHT31;58703;48.978;8.982;2023-04-03T04:24:40;3.28;74.97
71047;SHT31;58703;48.978;8.982;2023-04-03T04:27:06;3.28;74.30
71047;SHT31;58703;48.978;8.982;2023-04-03T04:29:32;3.24;74.32
71047;SHT31;58703;48.978;8.982;2023-04-03T04:32:02;3.22;74.38
71047;SHT31;58703;48.978;8.982;2023-04-03T04:34:28;3.21;74.40
71047;SHT31;58703;48.978;8.982;2023-04-03T04:36:54;3.17;74.58
71047;SHT31;58703;48.978;8.982;2023-04-03T04:39:20;3.17;74.85
71047;SHT31;58703;48.978;8.982;2023-04-03T04:41:45;3.12;74.94
71047;SHT31;58703;48.978;8.982;2023-04-03T04:44:11;3.10;75.43
71047;SHT31;58703;48.978;8.982;2023-04-03T04:46:38;3.01;75.79
71047;SHT31;58703;48.978;8.982;2023-04-03T04:49:03;2.99;76.41
71047;SHT31;58703;48.978;8.982;2023-04-03T04:51:30;3.05;76.44
71047;SHT31;58703;48.978;8.982;2023-04-03T04:53:56;2.99;76.82
71047;SHT31;58703;48.978;8.982;2023-04-03T04:56:21;2.86;77.75
71047;SHT31;58703;48.978;8.982;2023-04-03T04:58:47;2.76;78.17
71047;SHT31;58703;48.978;8.982;2023-04-03T05:01:13;2.69;78.43
71047;SHT31;58703;48.978;8.982;2023-04-03T05:03:38;2.66;78.28
71047;SHT31;58703;48.978;8.982;2023-04-03T05:06:04;2.64;77.72
71047;SHT31;58703;48.978;8.982;2023-04-03T05:08:31;2.60;78.39
71047;SHT31;58703;48.978;8.982;2023-04-03T05:10:56;2.64;78.50
71047;SHT31;58703;48.978;8.982;2023-04-03T05:13:22;2.64;78.12
71047;SHT31;58703;48.978;8.982;2023-04-03T05:15:48;2.73;77.24
71047;SHT31;58703;48.978;8.982;2023-04-03T05:18:15;2.73;77.03
71047;SHT31;58703;48.978;8.982;2023-04-03T05:20:40;2.76;77.30
71047;SHT31;58703;48.978;8.982;2023-04-03T05:23:06;2.77;77.11
71047;SHT31;58703;48.978;8.982;2023-04-03T05:25:33;2.84;76.19
71047;SHT31;58703;48.978;8.982;2023-04-03T05:27:58;2.86;76.38
71047;SHT31;58703;48.978;8.982;2023-04-03T05:30:25;2.89;76.21
71047;SHT31;58703;48.978;8.982;2023-04-03T05:32:51;2.90;75.56
71047;SHT31;58703;48.978;8.982;2023-04-03T05:35:17;2.94;75.20
71047;SHT31;58703;48.978;8.982;2023-04-03T05:37:44;2.94;74.83
71047;SHT31;58703;48.978;8.982;2023-04-03T05:40:10;2.97;74.84
71047;SHT31;58703;48.978;8.982;2023-04-03T05:42:37;3.00;75.11
71047;SHT31;58703;48.978;8.982;2023-04-03T05:45:03;2.99;75.37
71047;SHT31;58703;48.978;8.982;2023-04-03T05:47:30;3.00;75.36
71047;SHT31;58703;48.978;8.982;2023-04-03T05:49:56;2.94;75.20
71047;SHT31;58703;48.978;8.982;2023-04-03T05:52:35;2.90;75.86
71047;SHT31;58703;48.978;8.982;2023-04-03T05:55:03;2.89;75.73
71047;SHT31;58703;48.978;8.982;2023-04-03T05:57:30;2.87;75.94
71047;SHT31;58703;48.978;8.982;2023-04-03T05:59:57;2.87;76.19
71047;SHT31;58703;48.978;8.982;2023-04-03T06:02:24;2.87;76.31
71047;SHT31;58703;48.978;8.982;2023-04-03T06:04:52;2.94;76.68
71047;SHT31;58703;48.978;8.982;2023-04-03T06:07:20;2.94;76.57
71047;SHT31;58703;48.978;8.982;2023-04-03T06:09:48;2.97;76.61
71047;SHT31;58703;48.978;8.982;2023-04-03T06:12:15;2.96;76.73
71047;SHT31;58703;48.978;8.982;2023-04-03T06:14:41;2.99;76.99
71047;SHT31;58703;48.978;8.982;2023-04-03T06:17:07;3.04;77.14
71047;SHT31;58703;48.978;8.982;2023-04-03T06:19:36;3.03;77.18
71047;SHT31;58703;48.978;8.982;2023-04-03T06:22:01;3.14;77.40
71047;SHT31;58703;48.978;8.982;2023-04-03T06:24:28;3.18;77.49
71047;SHT31;58703;48.978;8.982;2023-04-03T06:26:54;3.17;77.50
71047;SHT31;58703;48.978;8.982;2023-04-03T06:29:20;3.21;77.50
71047;SHT31;58703;48.978;8.982;2023-04-03T06:31:46;3.17;77.91
71047;SHT31;58703;48.978;8.982;2023-04-03T06:34:12;3.31;77.50
71047;SHT31;58703;48.978;8.982;2023-04-03T06:36:39;3.27;77.56
71047;SHT31;58703;48.978;8.982;2023-04-03T06:39:05;3.39;77.97
71047;SHT31;58703;48.978;8.982;2023-04-03T06:41:30;3.42;77.54
71047;SHT31;58703;48.978;8.982;2023-04-03T06:43:58;3.41;77.42
71047;SHT31;58703;48.978;8.982;2023-04-03T06:46:26;3.46;77.68
71047;SHT31;58703;48.978;8.982;2023-04-03T06:48:53;3.63;77.57
71047;SHT31;58703;48.978;8.982;2023-04-03T06:51:27;3.62;77.60
71047;SHT31;58703;48.978;8.982;2023-04-03T06:53:54;3.79;77.73
71047;SHT31;58703;48.978;8.982;2023-04-03T06:56:22;3.65;77.33
71047;SHT31;58703;48.978;8.982;2023-04-03T06:58:48;3.73;77.56
71047;SHT31;58703;48.978;8.982;2023-04-03T07:01:17;3.85;77.36
71047;SHT31;58703;48.978;8.982;2023-04-03T07:03:46;3.93;77.36
71047;SHT31;58703;48.978;8.982;2023-04-03T07:06:14;3.76;77.87
71047;SHT31;58703;48.978;8.982;2023-04-03T07:08:40;3.52;77.84
71047;SHT31;58703;48.978;8.982;2023-04-03T07:11:06;3.65;78.05
71047;SHT31;58703;48.978;8.982;2023-04-03T07:13:32;3.73;77.96
71047;SHT31;58703;48.978;8.982;2023-04-03T07:15:59;3.90;78.02
71047;SHT31;58703;48.978;8.982;2023-04-03T07:18:26;3.86;77.57
71047;SHT31;58703;48.978;8.982;2023-04-03T07:20:53;4.14;77.88
71047;SHT31;58703;48.978;8.982;2023-04-03T07:23:19;4.17;77.66
71047;SHT31;58703;48.978;8.982;2023-04-03T07:25:49;4.33;76.89
71047;SHT31;58703;48.978;8.982;2023-04-03T07:28:16;4.32;77.20
71047;SHT31;58703;48.978;8.982;2023-04-03T07:30:53;4.32;77.16
71047;SHT31;58703;48.978;8.982;2023-04-03T07:33:22;4.43;76.70
71047;SHT31;58703;48.978;8.982;2023-04-03T07:35:47;4.38;77.09
71047;SHT31;58703;48.978;8.982;2023-04-03T07:38:13;4.56;76.30
71047;SHT31;58703;48.978;8.982;2023-04-03T07:40:39;4.88;75.95
71047;SHT31;58703;48.978;8.982;2023-04-03T07:43:05;4.58;75.81
71047;SHT31;58703;48.978;8.982;2023-04-03T07:45:33;4.48;76.38
71047;SHT31;58703;48.978;8.982;2023-04-03T07:48:01;4.44;76.22
71047;SHT31;58703;48.978;8.982;2023-04-03T07:50:27;4.23;76.72
71047;SHT31;58703;48.978;8.982;2023-04-03T07:52:53;4.60;76.45
71047;SHT31;58703;48.978;8.982;2023-04-03T07:55:21;4.44;76.30
71047;SHT31;58703;48.978;8.982;2023-04-03T07:57:47;4.78;76.33
71047;SHT31;58703;48.978;8.982;2023-04-03T08:00:13;4.65;75.75
71047;SHT31;58703;48.978;8.982;2023-04-03T08:02:40;4.87;75.77
71047;SHT31;58703;48.978;8.982;2023-04-03T08:05:07;4.77;74.62
71047;SHT31;58703;48.978;8.982;2023-04-03T08:07:32;4.71;74.69
71047;SHT31;58703;48.978;8.982;2023-04-03T08:09:58;4.79;74.58
71047;SHT31;58703;48.978;8.982;2023-04-03T08:12:23;4.88;74.12
71047;SHT31;58703;48.978;8.982;2023-04-03T08:14:49;4.89;74.03
71047;SHT31;58703;48.978;8.982;2023-04-03T08:17:16;4.75;75.14
71047;SHT31;58703;48.978;8.982;2023-04-03T08:19:43;4.78;73.90
71047;SHT31;58703;48.978;8.982;2023-04-03T08:22:10;4.98;74.59
71047;SHT31;58703;48.978;8.982;2023-04-03T08:24:36;5.18;74.11
71047;SHT31;58703;48.978;8.982;2023-04-03T08:27:01;5.12;73.30
71047;SHT31;58703;48.978;8.982;2023-04-03T08:29:27;5.18;73.13
71047;SHT31;58703;48.978;8.982;2023-04-03T08:31:52;5.19;73.08
71047;SHT31;58703;48.978;8.982;2023-04-03T08:34:18;5.66;71.93
71047;SHT31;58703;48.978;8.982;2023-04-03T08:36:46;5.52;72.16
71047;SHT31;58703;48.978;8.982;2023-04-03T08:39:12;5.18;72.23
71047;SHT31;58703;48.978;8.982;2023-04-03T08:41:44;5.59;72.14
71047;SHT31;58703;48.978;8.982;2023-04-03T08:44:24;5.80;70.41
71047;SHT31;58703;48.978;8.982;2023-04-03T08:47:18;5.25;69.63
71047;SHT31;58703;48.978;8.982;2023-04-03T08:49:52;5.18;70.72
71047;SHT31;58703;48.978;8.982;2023-04-03T08:52:32;5.47;70.35
71047;SHT31;58703;48.978;8.982;2023-04-03T08:58:09;5.83;69.19
71047;SHT31;58703;48.978;8.982;2023-04-03T09:00:44;5.95;69.28
71047;SHT31;58703;48.978;8.982;2023-04-03T09:03:20;5.77;68.56
71047;SHT31;58703;48.978;8.982;2023-04-03T09:06:00;6.07;68.89
71047;SHT31;58703;48.978;8.982;2023-04-03T09:08:29;5.80;69.54
71047;SHT31;58703;48.978;8.982;2023-04-03T09:13:55;6.29;68.65
71047;SHT31;58703;48.978;8.982;2023-04-03T09:19:11;5.67;68.58
71047;SHT31;58703;48.978;8.982;2023-04-03T09:21:42;6.39;67.75
71047;SHT31;58703;48.978;8.982;2023-04-03T09:24:14;6.69;67.82
71047;SHT31;58703;48.978;8.982;2023-04-03T09:26:57;6.71;67.32
71047;SHT31;58703;48.978;8.982;2023-04-03T09:29:26;6.69;66.19
71047;SHT31;58703;48.978;8.982;2023-04-03T09:32:00;6.73;65.30
71047;SHT31;58703;48.978;8.982;2023-04-03T09:34:36;6.96;64.75
71047;SHT31;58703;48.978;8.982;2023-04-03T09:37:04;6.79;63.10
71047;SHT31;58703;48.978;8.982;2023-04-03T09:39:49;6.80;64.68
71047;SHT31;58703;48.978;8.982;2023-04-03T09:42:19;7.06;64.90
71047;SHT31;58703;48.978;8.982;2023-04-03T09:44:54;7.54;63.84
71047;SHT31;58703;48.978;8.982;2023-04-03T09:47:35;6.64;63.97
71047;SHT31;58703;48.978;8.982;2023-04-03T09:52:42;7.10;62.52
71047;SHT31;58703;48.978;8.982;2023-04-03T09:55:29;7.03;62.93
71047;SHT31;58703;48.978;8.982;2023-04-03T09:57:58;7.26;61.70
71047;SHT31;58703;48.978;8.982;2023-04-03T10:00:26;6.95;63.00
71047;SHT31;58703;48.978;8.982;2023-04-03T10:02:57;6.92;62.39
71047;SHT31;58703;48.978;8.982;2023-04-03T10:05:34;6.93;61.87
71047;SHT31;58703;48.978;8.982;2023-04-03T10:08:28;7.13;62.92
71047;SHT31;58703;48.978;8.982;2023-04-03T10:11:15;7.40;62.98
71047;SHT31;58703;48.978;8.982;2023-04-03T10:13:53;6.90;62.39
71047;SHT31;58703;48.978;8.982;2023-04-03T10:16:39;6.57;62.70
71047;SHT31;58703;48.978;8.982;2023-04-03T10:21:58;7.06;61.36
71047;SHT31;58703;48.978;8.982;2023-04-03T10:24:44;7.37;62.87
71047;SHT31;58703;48.978;8.982;2023-04-03T10:30:47;7.72;61.96
71047;SHT31;58703;48.978;8.982;2023-04-03T10:36:48;7.59;59.98
71047;SHT31;58703;48.978;8.982;2023-04-03T10:39:27;7.13;59.49
71047;SHT31;58703;48.978;8.982;2023-04-03T10:42:15;7.40;59.43
71047;SHT31;58703;48.978;8.982;2023-04-03T10:44:56;7.08;60.11
71047;SHT31;58703;48.978;8.982;2023-04-03T10:50:00;7.40;60.87
71047;SHT31;58703;48.978;8.982;2023-04-03T10:52:43;7.41;59.17
71047;SHT31;58703;48.978;8.982;2023-04-03T10:55:34;7.35;58.61
71047;SHT31;58703;48.978;8.982;2023-04-03T10:58:03;7.48;58.71
71047;SHT31;58703;48.978;8.982;2023-04-03T11:00:50;7.78;59.38
71047;SHT31;58703;48.978;8.982;2023-04-03T11:03:30;7.99;60.47
71047;SHT31;58703;48.978;8.982;2023-04-03T11:06:01;6.77;59.90
71047;SHT31;58703;48.978;8.982;2023-04-03T11:08:43;6.69;60.65
71047;SHT31;58703;48.978;8.982;2023-04-03T11:11:14;7.03;59.77
71047;SHT31;58703;48.978;8.982;2023-04-03T11:14:03;6.75;60.44
71047;SHT31;58703;48.978;8.982;2023-04-03T11:16:34;6.86;61.44
71047;SHT31;58703;48.978;8.982;2023-04-03T11:19:11;7.06;60.99
71047;SHT31;58703;48.978;8.982;2023-04-03T11:24:27;7.28;59.72
71047;SHT31;58703;48.978;8.982;2023-04-03T11:26:56;7.17;58.71
71047;SHT31;58703;48.978;8.982;2023-04-03T11:29:31;7.35;58.92
71047;SHT31;58703;48.978;8.982;2023-04-03T11:34:42;6.95;62.20
71047;SHT31;58703;48.978;8.982;2023-04-03T11:39:48;6.96;61.19
71047;SHT31;58703;48.978;8.982;2023-04-03T11:42:38;6.92;60.45
71047;SHT31;58703;48.978;8.982;2023-04-03T11:48:01;6.57;60.71
71047;SHT31;58703;48.978;8.982;2023-04-03T12:00:59;7.03;59.91
71047;SHT31;58703;48.978;8.982;2023-04-03T12:11:13;7.57;58.65
71047;SHT31;58703;48.978;8.982;2023-04-03T12:16:42;7.48;57.33
71047;SHT31;58703;48.978;8.982;2023-04-03T12:26:46;6.95;56.35
71047;SHT31;58703;48.978;8.982;2023-04-03T12:29:23;6.95;56.50
71047;SHT31;58703;48.978;8.982;2023-04-03T12:38:28;6.89;58.47
71047;SHT31;58703;48.978;8.982;2023-04-03T12:41:27;6.62;59.65
71047;SHT31;58703;48.978;8.982;2023-04-03T12:44:11;6.76;59.21
71047;SHT31;58703;48.978;8.982;2023-04-03T12:46:52;7.00;58.46
71047;SHT31;58703;48.978;8.982;2023-04-03T12:49:38;7.17;58.32
71047;SHT31;58703;48.978;8.982;2023-04-03T12:52:19;7.11;56.01
71047;SHT31;58703;48.978;8.982;2023-04-03T12:54:48;7.58;55.52
71047;SHT31;58703;48.978;8.982;2023-04-03T12:59:42;8.05;55.70
71047;SHT31;58703;48.978;8.982;2023-04-03T13:02:24;7.65;55.29
71047;SHT31;58703;48.978;8.982;2023-04-03T13:04:53;8.37;54.58
71047;SHT31;58703;48.978;8.982;2023-04-03T13:07:38;8.94;51.56
71047;SHT31;58703;48.978;8.982;2023-04-03T13:12:32;8.01;54.16
71047;SHT31;58703;48.978;8.982;2023-04-03T13:15:02;7.69;55.19
71047;SHT31;58703;48.978;8.982;2023-04-03T13:17:30;8.02;54.63
71047;SHT31;58703;48.978;8.982;2023-04-03T13:20:29;8.07;53.57
71047;SHT31;58703;48.978;8.982;2023-04-03T13:22:56;7.77;52.26
71047;SHT31;58703;48.978;8.982;2023-04-03T13:25:24;7.61;53.99
71047;SHT31;58703;48.978;8.982;2023-04-03T13:27:51;7.61;52.79
71047;SHT31;58703;48.978;8.982;2023-04-03T13:30:25;7.34;54.76
71047;SHT31;58703;48.978;8.982;2023-04-03T13:32:51;7.85;53.56
71047;SHT31;58703;48.978;8.982;2023-04-03T13:35:39;8.13;54.79
71047;SHT31;58703;48.978;8.982;2023-04-03T13:38:26;8.02;52.01
71047;SHT31;58703;48.978;8.982;2023-04-03T13:40:57;7.67;51.88
71047;SHT31;58703;48.978;8.982;2023-04-03T13:43:35;8.14;52.43
71047;SHT31;58703;48.978;8.982;2023-04-03T13:48:48;8.20;52.58
71047;SHT31;58703;48.978;8.982;2023-04-03T13:53:56;8.59;52.04
71047;SHT31;58703;48.978;8.982;2023-04-03T13:56:36;7.96;51.74
71047;SHT31;58703;48.978;8.982;2023-04-03T14:01:49;8.77;51.49
71047;SHT31;58703;48.978;8.982;2023-04-03T14:07:12;7.62;54.09
71047;SHT31;58703;48.978;8.982;2023-04-03T14:09:40;8.01;54.32
71047;SHT31;58703;48.978;8.982;2023-04-03T14:12:13;8.03;53.32
71047;SHT31;58703;48.978;8.982;2023-04-03T14:14:42;7.61;52.82
71047;SHT31;58703;48.978;8.982;2023-04-03T14:17:20;7.48;53.33
71047;SHT31;58703;48.978;8.982;2023-04-03T14:19:47;7.62;53.49
71047;SHT31;58703;48.978;8.982;2023-04-03T14:22:21;7.41;52.01
71047;SHT31;58703;48.978;8.982;2023-04-03T14:24:50;7.38;53.08
71047;SHT31;58703;48.978;8.982;2023-04-03T14:27:29;7.51;52.55
71047;SHT31;58703;48.978;8.982;2023-04-03T14:29:57;7.88;51.39
71047;SHT31;58703;48.978;8.982;2023-04-03T14:32:25;8.09;51.45
71047;SHT31;58703;48.978;8.982;2023-04-03T14:34:53;7.88;51.82
71047;SHT31;58703;48.978;8.982;2023-04-03T14:37:25;8.06;51.53
71047;SHT31;58703;48.978;8.982;2023-04-03T14:39:54;8.34;50.75
71047;SHT31;58703;48.978;8.982;2023-04-03T14:42:30;8.74;47.52
71047;SHT31;58703;48.978;8.982;2023-04-03T14:44:59;8.25;49.31
71047;SHT31;58703;48.978;8.982;2023-04-03T14:47:28;8.06;49.81
71047;SHT31;58703;48.978;8.982;2023-04-03T14:49:54;8.20;49.20
71047;SHT31;58703;48.978;8.982;2023-04-03T14:54:48;8.42;49.25
71047;SHT31;58703;48.978;8.982;2023-04-03T14:57:16;8.25;48.90
71047;SHT31;58703;48.978;8.982;2023-04-03T14:59:44;8.07;48.62
71047;SHT31;58703;48.978;8.982;2023-04-03T15:02:30;7.75;50.09
71047;SHT31;58703;48.978;8.982;2023-04-03T15:04:58;9.94;45.05
71047;SHT31;58703;48.978;8.982;2023-04-03T15:07:27;10.96;43.74
71047;SHT31;58703;48.978;8.982;2023-04-03T15:09:54;11.59;43.39
71047;SHT31;58703;48.978;8.982;2023-04-03T15:12:26;9.87;44.80
71047;SHT31;58703;48.978;8.982;2023-04-03T15:14:52;8.54;48.90
71047;SHT31;58703;48.978;8.982;2023-04-03T15:17:22;7.86;49.72
71047;SHT31;58703;48.978;8.982;2023-04-03T15:19:49;7.71;50.57
71047;SHT31;58703;48.978;8.982;2023-04-03T15:22:18;8.06;48.75
71047;SHT31;58703;48.978;8.982;2023-04-03T15:24:45;9.28;46.50
71047;SHT31;58703;48.978;8.982;2023-04-03T15:27:13;11.22;44.14
71047;SHT31;58703;48.978;8.982;2023-04-03T15:29:41;12.55;41.59
71047;SHT31;58703;48.978;8.982;2023-04-03T15:32:09;12.13;40.94
71047;SHT31;58703;48.978;8.982;2023-04-03T15:34:42;12.02;40.69
71047;SHT31;58703;48.978;8.982;2023-04-03T15:37:08;11.42;42.26
71047;SHT31;58703;48.978;8.982;2023-04-03T15:39:34;8.88;44.88
71047;SHT31;58703;48.978;8.982;2023-04-03T15:42:01;8.14;48.83
71047;SHT31;58703;48.978;8.982;2023-04-03T15:44:33;10.21;43.90
71047;SHT31;58703;48.978;8.982;2023-04-03T15:47:02;11.20;42.23
71047;SHT31;58703;48.978;8.982;2023-04-03T15:49:32;10.67;43.17
71047;SHT31;58703;48.978;8.982;2023-04-03T15:51:58;12.25;39.58
71047;SHT31;58703;48.978;8.982;2023-04-03T15:54:23;13.20;38.40
71047;SHT31;58703;48.978;8.982;2023-04-03T15:56:52;10.51;42.60
71047;SHT31;58703;48.978;8.982;2023-04-03T15:59:18;10.76;42.63
71047;SHT31;58703;48.978;8.982;2023-04-03T16:01:46;9.16;47.01
71047;SHT31;58703;48.978;8.982;2023-04-03T16:04:14;8.56;46.76
71047;SHT31;58703;48.978;8.982;2023-04-03T16:06:42;7.69;48.95
71047;SHT31;58703;48.978;8.982;2023-04-03T16:09:09;7.47;49.05
71047;SHT31;58703;48.978;8.982;2023-04-03T16:11:36;7.08;49.09
71047;SHT31;58703;48.978;8.982;2023-04-03T16:14:09;7.30;49.45
71047;SHT31;58703;48.978;8.982;2023-04-03T16:16:36;7.44;49.76
71047;SHT31;58703;48.978;8.982;2023-04-03T16:19:04;7.58;49.89
71047;SHT31;58703;48.978;8.982;2023-04-03T16:21:32;9.79;45.75
71047;SHT31;58703;48.978;8.982;2023-04-03T16:24:00;8.77;45.75
71047;SHT31;58703;48.978;8.982;2023-04-03T16:26:28;8.19;47.80
71047;SHT31;58703;48.978;8.982;2023-04-03T16:28:55;8.02;48.20
71047;SHT31;58703;48.978;8.982;2023-04-03T16:31:22;7.67;49.80
71047;SHT31;58703;48.978;8.982;2023-04-03T16:33:50;7.83;48.85
71047;SHT31;58703;48.978;8.982;2023-04-03T16:36:17;7.13;49.90
71047;SHT31;58703;48.978;8.982;2023-04-03T16:38:44;6.90;50.70
71047;SHT31;58703;48.978;8.982;2023-04-03T16:41:10;6.96;50.45
71047;SHT31;58703;48.978;8.982;2023-04-03T16:43:36;6.93;51.21
71047;SHT31;58703;48.978;8.982;2023-04-03T16:46:03;6.69;51.05
71047;SHT31;58703;48.978;8.982;2023-04-03T16:48:29;6.80;51.77
71047;SHT31;58703;48.978;8.982;2023-04-03T16:50:55;6.76;52.23
71047;SHT31;58703;48.978;8.982;2023-04-03T16:53:23;6.89;52.19
71047;SHT31;58703;48.978;8.982;2023-04-03T16:55:50;6.83;52.84
71047;SHT31;58703;48.978;8.982;2023-04-03T16:58:17;6.69;52.24
71047;SHT31;58703;48.978;8.982;2023-04-03T17:00:44;6.61;52.17
71047;SHT31;58703;48.978;8.982;2023-04-03T17:03:13;6.55;52.59
71047;SHT31;58703;48.978;8.982;2023-04-03T17:05:39;6.45;50.94
71047;SHT31;58703;48.978;8.982;2023-04-03T17:08:04;6.42;51.38
71047;SHT31;58703;48.978;8.982;2023-04-03T17:10:31;6.45;52.27
71047;SHT31;58703;48.978;8.982;2023-04-03T17:12:59;6.41;52.77
71047;SHT31;58703;48.978;8.982;2023-04-03T17:15:26;6.38;52.68
71047;SHT31;58703;48.978;8.982;2023-04-03T17:17:53;6.44;52.18
71047;SHT31;58703;48.978;8.982;2023-04-03T17:20:19;6.65;51.87
71047;SHT31;58703;48.978;8.982;2023-04-03T17:22:46;6.79;51.41
71047;SHT31;58703;48.978;8.982;2023-04-03T17:25:13;7.10;52.06
71047;SHT31;58703;48.978;8.982;2023-04-03T17:27:41;6.79;51.81